sensor_id;sensor_type;location;lat;lon;timestamp;temperature;humidity
23755;DHT22;12057;52.042;6.830;2023-04-25T00:01:26;7.80;99.90
23755;DHT22;12057;52.042;6.830;2023-04-25T00:06:27;7.90;99.90
23755;DHT22;12057;52.042;6.830;2023-04-25T00:11:27;7.70;99.90
23755;DHT22;12057;52.042;6.830;2023-04-25T00:16:29;7.70;99.90
23755;DHT22;12057;52.042;6.830;2023-04-25T00:21:33;7.70;99.90
23755;DHT22;12057;52.042;6.830;2023-04-25T00:26:34;7.80;99.90
23755;DHT22;12057;52.042;6.830;2023-04-25T00:31:36;7.80;99.90
23755;DHT22;12057;52.042;6.830;2023-04-25T00:36:37;7.70;99.90
23755;DHT22;12057;52.042;6.830;2023-04-25T00:41:38;7.70;99.90
23755;DHT22;12057;52.042;6.830;2023-04-25T00:46:40;7.70;99.90
23755;DHT22;12057;52.042;6.830;2023-04-25T00:51:41;7.70;99.90
23755;DHT22;12057;52.042;6.830;2023-04-25T00:56:42;7.60;99.90
23755;DHT22;12057;52.042;6.830;2023-04-25T01:01:45;7.50;99.90
23755;DHT22;12057;52.042;6.830;2023-04-25T01:06:46;7.50;99.90
23755;DHT22;12057;52.042;6.830;2023-04-25T01:11:47;7.60;99.90
23755;DHT22;12057;52.042;6.830;2023-04-25T01:16:48;7.60;99.90
23755;DHT22;12057;52.042;6.830;2023-04-25T01:21:48;7.60;99.90
23755;DHT22;12057;52.042;6.830;2023-04-25T01:26:49;7.50;99.90
23755;DHT22;12057;52.042;6.830;2023-04-25T01:31:52;7.50;99.90
23755;DHT22;12057;52.042;6.830;2023-04-25T01:36:53;7.50;99.90
23755;DHT22;12057;52.042;6.830;2023-04-25T01:41:54;7.40;99.90
23755;DHT22;12057;52.042;6.830;2023-04-25T01:46:55;7.40;99.90
23755;DHT22;12057;52.042;6.830;2023-04-25T01:51:56;7.40;99.90
23755;DHT22;12057;52.042;6.830;2023-04-25T01:56:57;7.40;99.90
23755;DHT22;12057;52.042;6.830;2023-04-25T02:01:58;7.30;99.90
23755;DHT22;12057;52.042;6.830;2023-04-25T02:06:59;7.20;99.90
23755;DHT22;12057;52.042;6.830;2023-04-25T02:12:00;7.20;99.90
23755;DHT22;12057;52.042;6.830;2023-04-25T02:17:01;7.30;99.90
23755;DHT22;12057;52.042;6.830;2023-04-25T02:22:01;7.20;99.90
23755;DHT22;12057;52.042;6.830;2023-04-25T02:27:02;7.20;99.90
23755;DHT22;12057;52.042;6.830;2023-04-25T02:32:03;7.30;99.90
23755;DHT22;12057;52.042;6.830;2023-04-25T02:37:04;7.10;99.90
23755;DHT22;12057;52.042;6.830;2023-04-25T02:42:05;7.10;99.90
23755;DHT22;12057;52.042;6.830;2023-04-25T02:47:06;7.20;99.90
23755;DHT22;12057;52.042;6.830;2023-04-25T02:52:07;7.10;99.90
23755;DHT22;12057;52.042;6.830;2023-04-25T02:57:07;7.10;99.90
23755;DHT22;12057;52.042;6.830;2023-04-25T03:02:09;7.00;99.90
23755;DHT22;12057;52.042;6.830;2023-04-25T03:07:10;7.00;99.90
23755;DHT22;12057;52.042;6.830;2023-04-25T03:12:10;6.90;99.90
23755;DHT22;12057;52.042;6.830;2023-04-25T03:17:11;7.00;99.90
23755;DHT22;12057;52.042;6.830;2023-04-25T03:22:12;6.90;99.90
23755;DHT22;12057;52.042;6.830;2023-04-25T03:27:13;6.90;99.90
23755;DHT22;12057;52.042;6.830;2023-04-25T03:32:13;6.90;99.90
23755;DHT22;12057;52.042;6.830;2023-04-25T03:37:14;6.90;99.90
23755;DHT22;12057;52.042;6.830;2023-04-25T03:42:15;6.90;99.90
23755;DHT22;12057;52.042;6.830;2023-04-25T03:47:16;6.80;99.90
23755;DHT22;12057;52.042;6.830;2023-04-25T03:52:17;6.80;99.90
23755;DHT22;12057;52.042;6.830;2023-04-25T03:57:17;6.80;99.90
23755;DHT22;12057;52.042;6.830;2023-04-25T04:02:18;6.80;99.90
23755;DHT22;12057;52.042;6.830;2023-04-25T04:07:19;6.80;99.90
23755;DHT22;12057;52.042;6.830;2023-04-25T04:12:20;6.70;99.90
23755;DHT22;12057;52.042;6.830;2023-04-25T04:17:20;6.70;99.90
23755;DHT22;12057;52.042;6.830;2023-04-25T04:22:22;6.70;99.90
23755;DHT22;12057;52.042;6.830;2023-04-25T04:27:23;6.70;99.90
23755;DHT22;12057;52.042;6.830;2023-04-25T04:32:24;6.80;99.90
23755;DHT22;12057;52.042;6.830;2023-04-25T04:37:25;6.80;99.90
23755;DHT22;12057;52.042;6.830;2023-04-25T04:42:26;6.80;99.90
23755;DHT22;12057;52.042;6.830;2023-04-25T04:47:28;6.70;99.90
23755;DHT22;12057;52.042;6.830;2023-04-25T04:52:32;6.70;99.90
23755;DHT22;12057;52.042;6.830;2023-04-25T04:57:34;6.70;99.90
23755;DHT22;12057;52.042;6.830;2023-04-25T05:02:35;6.70;99.90
23755;DHT22;12057;52.042;6.830;2023-04-25T05:07:35;6.80;99.90
23755;DHT22;12057;52.042;6.830;2023-04-25T05:12:36;6.80;99.90
23755;DHT22;12057;52.042;6.830;2023-04-25T05:17:37;6.80;99.90
23755;DHT22;12057;52.042;6.830;2023-04-25T05:22:39;6.80;99.90
23755;DHT22;12057;52.042;6.830;2023-04-25T05:27:42;6.80;99.90
23755;DHT22;12057;52.042;6.830;2023-04-25T05:32:42;6.90;99.90
23755;DHT22;12057;52.042;6.830;2023-04-25T05:37:43;6.90;99.90
23755;DHT22;12057;52.042;6.830;2023-04-25T05:42:44;6.90;99.90
23755;DHT22;12057;52.042;6.830;2023-04-25T05:47:45;6.80;99.90
23755;DHT22;12057;52.042;6.830;2023-04-25T05:52:45;6.90;99.90
23755;DHT22;12057;52.042;6.830;2023-04-25T05:57:49;7.00;99.90
23755;DHT22;12057;52.042;6.830;2023-04-25T06:02:50;7.00;99.90
23755;DHT22;12057;52.042;6.830;2023-04-25T06:07:51;7.10;99.90
23755;DHT22;12057;52.042;6.830;2023-04-25T06:12:52;7.10;99.90
23755;DHT22;12057;52.042;6.830;2023-04-25T06:17:52;7.10;99.90
23755;DHT22;12057;52.042;6.830;2023-04-25T06:22:53;7.30;99.90
23755;DHT22;12057;52.042;6.830;2023-04-25T06:27:54;7.40;99.90
23755;DHT22;12057;52.042;6.830;2023-04-25T06:32:55;7.40;99.90
23755;DHT22;12057;52.042;6.830;2023-04-25T06:37:56;7.40;99.90
23755;DHT22;12057;52.042;6.830;2023-04-25T06:42:56;7.40;99.90
23755;DHT22;12057;52.042;6.830;2023-04-25T06:47:57;7.50;99.90
23755;DHT22;12057;52.042;6.830;2023-04-25T06:52:58;7.40;99.90
23755;DHT22;12057;52.042;6.830;2023-04-25T06:57:59;7.50;99.90
23755;DHT22;12057;52.042;6.830;2023-04-25T07:03:00;7.60;99.90
23755;DHT22;12057;52.042;6.830;2023-04-25T07:08:01;7.60;99.90
23755;DHT22;12057;52.042;6.830;2023-04-25T07:13:02;7.60;99.90
23755;DHT22;12057;52.042;6.830;2023-04-25T07:18:02;7.60;99.90
23755;DHT22;12057;52.042;6.830;2023-04-25T07:23:03;7.80;99.90
23755;DHT22;12057;52.042;6.830;2023-04-25T07:28:04;8.00;99.90
23755;DHT22;12057;52.042;6.830;2023-04-25T07:33:05;8.00;99.90
23755;DHT22;12057;52.042;6.830;2023-04-25T07:38:06;8.10;99.90
23755;DHT22;12057;52.042;6.830;2023-04-25T07:43:07;8.40;99.90
23755;DHT22;12057;52.042;6.830;2023-04-25T07:48:07;8.80;99.90
23755;DHT22;12057;52.042;6.830;2023-04-25T07:53:08;8.80;99.90
23755;DHT22;12057;52.042;6.830;2023-04-25T07:58:10;8.70;99.90
23755;DHT22;12057;52.042;6.830;2023-04-25T08:03:11;9.10;99.90
23755;DHT22;12057;52.042;6.830;2023-04-25T08:08:12;9.50;99.90
23755;DHT22;12057;52.042;6.830;2023-04-25T08:13:13;9.70;99.90
23755;DHT22;12057;52.042;6.830;2023-04-25T08:18:14;9.70;99.90
23755;DHT22;12057;52.042;6.830;2023-04-25T08:23:15;9.60;99.90
23755;DHT22;12057;52.042;6.830;2023-04-25T08:28:15;9.60;99.90
23755;DHT22;12057;52.042;6.830;2023-04-25T08:33:17;9.40;99.90
23755;DHT22;12057;52.042;6.830;2023-04-25T08:38:18;9.30;99.90
23755;DHT22;12057;52.042;6.830;2023-04-25T08:43:20;9.60;99.90
23755;DHT22;12057;52.042;6.830;2023-04-25T08:48:21;9.50;99.90
23755;DHT22;12057;52.042;6.830;2023-04-25T08:53:28;9.10;99.90
23755;DHT22;12057;52.042;6.830;2023-04-25T08:58:30;9.10;99.90
23755;DHT22;12057;52.042;6.830;2023-04-25T09:03:32;8.90;99.90
23755;DHT22;12057;52.042;6.830;2023-04-25T09:08:33;8.80;99.90
23755;DHT22;12057;52.042;6.830;2023-04-25T09:13:34;9.00;99.90
23755;DHT22;12057;52.042;6.830;2023-04-25T09:18:35;9.40;99.90
23755;DHT22;12057;52.042;6.830;2023-04-25T09:23:47;9.70;99.90
23755;DHT22;12057;52.042;6.830;2023-04-25T09:28:48;9.90;99.90
23755;DHT22;12057;52.042;6.830;2023-04-25T09:33:48;9.90;99.90
23755;DHT22;12057;52.042;6.830;2023-04-25T09:38:49;9.80;99.90
23755;DHT22;12057;52.042;6.830;2023-04-25T09:43:51;9.80;99.90
23755;DHT22;12057;52.042;6.830;2023-04-25T09:48:51;9.70;99.90
23755;DHT22;12057;52.042;6.830;2023-04-25T09:53:54;9.90;99.90
23755;DHT22;12057;52.042;6.830;2023-04-25T09:58:55;10.00;99.90
23755;DHT22;12057;52.042;6.830;2023-04-25T10:03:56;10.10;99.90
23755;DHT22;12057;52.042;6.830;2023-04-25T10:08:58;10.40;99.90
23755;DHT22;12057;52.042;6.830;2023-04-25T10:14:00;10.50;99.90
23755;DHT22;12057;52.042;6.830;2023-04-25T10:19:01;10.70;99.90
23755;DHT22;12057;52.042;6.830;2023-04-25T10:24:03;11.00;99.90
23755;DHT22;12057;52.042;6.830;2023-04-25T10:29:04;11.30;99.90
23755;DHT22;12057;52.042;6.830;2023-04-25T10:34:04;12.00;99.90
23755;DHT22;12057;52.042;6.830;2023-04-25T10:39:06;12.20;99.90
23755;DHT22;12057;52.042;6.830;2023-04-25T10:44:17;11.70;99.90
23755;DHT22;12057;52.042;6.830;2023-04-25T10:49:38;10.90;99.90
23755;DHT22;12057;52.042;6.830;2023-04-25T10:54:53;10.10;99.90
23755;DHT22;12057;52.042;6.830;2023-04-25T10:59:57;9.60;99.90
23755;DHT22;12057;52.042;6.830;2023-04-25T11:05:02;9.30;99.90
23755;DHT22;12057;52.042;6.830;2023-04-25T11:10:08;9.20;99.90
23755;DHT22;12057;52.042;6.830;2023-04-25T11:15:13;9.20;99.90
23755;DHT22;12057;52.042;6.830;2023-04-25T11:20:25;9.30;99.90
23755;DHT22;12057;52.042;6.830;2023-04-25T11:25:29;9.00;99.90
23755;DHT22;12057;52.042;6.830;2023-04-25T11:30:32;9.10;99.90
23755;DHT22;12057;52.042;6.830;2023-04-25T11:35:35;9.60;99.90
23755;DHT22;12057;52.042;6.830;2023-04-25T11:40:40;10.10;99.90
23755;DHT22;12057;52.042;6.830;2023-04-25T11:45:49;10.80;99.90
23755;DHT22;12057;52.042;6.830;2023-04-25T11:50:55;11.50;99.90
23755;DHT22;12057;52.042;6.830;2023-04-25T11:56:09;12.20;99.90
23755;DHT22;12057;52.042;6.830;2023-04-25T12:01:24;12.10;99.90
23755;DHT22;12057;52.042;6.830;2023-04-25T12:06:55;11.40;99.90
23755;DHT22;12057;52.042;6.830;2023-04-25T12:12:05;11.00;99.90
23755;DHT22;12057;52.042;6.830;2023-04-25T12:17:16;11.80;99.90
23755;DHT22;12057;52.042;6.830;2023-04-25T12:22:33;12.60;99.90
23755;DHT22;12057;52.042;6.830;2023-04-25T12:27:40;13.10;99.90
23755;DHT22;12057;52.042;6.830;2023-04-25T12:32:43;13.20;99.90
23755;DHT22;12057;52.042;6.830;2023-04-25T12:37:55;12.70;99.90
23755;DHT22;12057;52.042;6.830;2023-04-25T12:43:02;12.10;99.90
23755;DHT22;12057;52.042;6.830;2023-04-25T12:48:07;12.20;99.90
23755;DHT22;12057;52.042;6.830;2023-04-25T12:53:09;12.40;99.90
23755;DHT22;12057;52.042;6.830;2023-04-25T12:58:10;12.80;99.90
23755;DHT22;12057;52.042;6.830;2023-04-25T13:03:11;12.10;99.90
23755;DHT22;12057;52.042;6.830;2023-04-25T13:08:12;11.20;99.90
23755;DHT22;12057;52.042;6.830;2023-04-25T13:13:13;11.00;99.90
23755;DHT22;12057;52.042;6.830;2023-04-25T13:18:15;11.80;99.90
23755;DHT22;12057;52.042;6.830;2023-04-25T13:23:15;11.60;99.90
23755;DHT22;12057;52.042;6.830;2023-04-25T13:28:16;11.70;99.90
23755;DHT22;12057;52.042;6.830;2023-04-25T13:33:17;12.00;99.90
23755;DHT22;12057;52.042;6.830;2023-04-25T13:38:18;12.10;99.90
23755;DHT22;12057;52.042;6.830;2023-04-25T13:43:22;12.00;99.90
23755;DHT22;12057;52.042;6.830;2023-04-25T13:48:24;12.20;99.90
23755;DHT22;12057;52.042;6.830;2023-04-25T13:53:25;11.70;99.90
23755;DHT22;12057;52.042;6.830;2023-04-25T13:58:26;11.70;99.90
23755;DHT22;12057;52.042;6.830;2023-04-25T14:03:26;11.90;99.90
23755;DHT22;12057;52.042;6.830;2023-04-25T14:08:27;11.80;99.90
23755;DHT22;12057;52.042;6.830;2023-04-25T14:13:28;12.10;99.90
23755;DHT22;12057;52.042;6.830;2023-04-25T14:18:29;12.50;99.90
23755;DHT22;12057;52.042;6.830;2023-04-25T14:23:30;12.60;99.90
23755;DHT22;12057;52.042;6.830;2023-04-25T14:28:31;12.90;99.90
23755;DHT22;12057;52.042;6.830;2023-04-25T14:33:32;12.70;99.90
23755;DHT22;12057;52.042;6.830;2023-04-25T14:38:33;12.20;99.90
23755;DHT22;12057;52.042;6.830;2023-04-25T14:43:33;11.30;99.90
23755;DHT22;12057;52.042;6.830;2023-04-25T14:48:34;11.90;99.90
23755;DHT22;12057;52.042;6.830;2023-04-25T14:53:35;12.00;99.90
23755;DHT22;12057;52.042;6.830;2023-04-25T14:58:36;11.70;99.90
23755;DHT22;12057;52.042;6.830;2023-04-25T15:03:38;11.60;99.90
23755;DHT22;12057;52.042;6.830;2023-04-25T15:08:39;11.30;99.90
23755;DHT22;12057;52.042;6.830;2023-04-25T15:13:39;11.20;99.90
23755;DHT22;12057;52.042;6.830;2023-04-25T15:18:40;11.30;99.90
23755;DHT22;12057;52.042;6.830;2023-04-25T15:23:44;11.40;99.90
23755;DHT22;12057;52.042;6.830;2023-04-25T15:28:45;11.50;99.60
23755;DHT22;12057;52.042;6.830;2023-04-25T15:33:46;11.10;99.30
23755;DHT22;12057;52.042;6.830;2023-04-25T15:38:47;11.50;99.90
23755;DHT22;12057;52.042;6.830;2023-04-25T15:43:47;11.60;99.90
23755;DHT22;12057;52.042;6.830;2023-04-25T15:48:48;11.50;99.90
23755;DHT22;12057;52.042;6.830;2023-04-25T15:53:49;11.30;99.90
23755;DHT22;12057;52.042;6.830;2023-04-25T15:58:50;11.10;99.90
23755;DHT22;12057;52.042;6.830;2023-04-25T16:03:51;10.80;99.90
23755;DHT22;12057;52.042;6.830;2023-04-25T16:08:52;10.90;99.90
23755;DHT22;12057;52.042;6.830;2023-04-25T16:13:53;10.90;99.90
23755;DHT22;12057;52.042;6.830;2023-04-25T16:18:54;10.80;99.90
23755;DHT22;12057;52.042;6.830;2023-04-25T16:23:58;10.70;99.90
23755;DHT22;12057;52.042;6.830;2023-04-25T16:29:01;10.50;99.90
23755;DHT22;12057;52.042;6.830;2023-04-25T16:34:03;10.20;99.90
23755;DHT22;12057;52.042;6.830;2023-04-25T16:39:03;10.10;99.90
23755;DHT22;12057;52.042;6.830;2023-04-25T16:44:04;9.80;99.90
23755;DHT22;12057;52.042;6.830;2023-04-25T16:49:10;9.90;99.90
23755;DHT22;12057;52.042;6.830;2023-04-25T16:54:11;9.80;99.90
23755;DHT22;12057;52.042;6.830;2023-04-25T16:59:11;9.90;99.90
23755;DHT22;12057;52.042;6.830;2023-04-25T17:04:12;9.60;99.90
23755;DHT22;12057;52.042;6.830;2023-04-25T17:09:13;9.60;99.90
23755;DHT22;12057;52.042;6.830;2023-04-25T17:14:14;9.60;99.90
23755;DHT22;12057;52.042;6.830;2023-04-25T17:19:15;9.40;99.90
23755;DHT22;12057;52.042;6.830;2023-04-25T17:24:16;9.20;99.90
23755;DHT22;12057;52.042;6.830;2023-04-25T17:29:17;9.20;99.90
23755;DHT22;12057;52.042;6.830;2023-04-25T17:34:18;9.20;99.90
23755;DHT22;12057;52.042;6.830;2023-04-25T17:39:20;9.10;99.90
23755;DHT22;12057;52.042;6.830;2023-04-25T17:44:21;9.00;99.90
23755;DHT22;12057;52.042;6.830;2023-04-25T17:49:21;9.00;99.90
23755;DHT22;12057;52.042;6.830;2023-04-25T17:54:22;8.90;99.90
23755;DHT22;12057;52.042;6.830;2023-04-25T17:59:23;8.80;99.90
23755;DHT22;12057;52.042;6.830;2023-04-25T18:04:28;8.70;99.90
23755;DHT22;12057;52.042;6.830;2023-04-25T18:09:28;8.50;99.90
23755;DHT22;12057;52.042;6.830;2023-04-25T18:14:31;8.40;99.90
23755;DHT22;12057;52.042;6.830;2023-04-25T18:19:34;8.40;99.90
23755;DHT22;12057;52.042;6.830;2023-04-25T18:24:35;8.40;99.90
23755;DHT22;12057;52.042;6.830;2023-04-25T18:29:35;8.30;99.90
23755;DHT22;12057;52.042;6.830;2023-04-25T18:34:41;8.20;99.90
23755;DHT22;12057;52.042;6.830;2023-04-25T18:39:45;8.10;99.90
23755;DHT22;12057;52.042;6.830;2023-04-25T18:44:46;8.20;99.90
23755;DHT22;12057;52.042;6.830;2023-04-25T18:49:46;8.00;99.90
23755;DHT22;12057;52.042;6.830;2023-04-25T18:54:47;7.90;99.90
23755;DHT22;12057;52.042;6.830;2023-04-25T18:59:48;7.80;99.90
23755;DHT22;12057;52.042;6.830;2023-04-25T19:04:49;7.60;99.90
23755;DHT22;12057;52.042;6.830;2023-04-25T19:09:49;7.60;99.90
23755;DHT22;12057;52.042;6.830;2023-04-25T19:14:50;7.50;99.90
23755;DHT22;12057;52.042;6.830;2023-04-25T19:19:52;7.50;99.90
23755;DHT22;12057;52.042;6.830;2023-04-25T19:24:53;7.30;99.90
23755;DHT22;12057;52.042;6.830;2023-04-25T19:29:54;7.20;99.90
23755;DHT22;12057;52.042;6.830;2023-04-25T19:35:07;7.00;99.90
23755;DHT22;12057;52.042;6.830;2023-04-25T19:40:16;6.80;99.90
23755;DHT22;12057;52.042;6.830;2023-04-25T19:45:28;6.60;99.90
23755;DHT22;12057;52.042;6.830;2023-04-25T19:50:36;6.60;99.90
23755;DHT22;12057;52.042;6.830;2023-04-25T19:55:37;6.40;99.90
23755;DHT22;12057;52.042;6.830;2023-04-25T20:00:38;6.40;99.90
23755;DHT22;12057;52.042;6.830;2023-04-25T20:05:39;6.30;99.90
23755;DHT22;12057;52.042;6.830;2023-04-25T20:10:49;6.10;99.90
23755;DHT22;12057;52.042;6.830;2023-04-25T20:15:53;6.00;99.90
23755;DHT22;12057;52.042;6.830;2023-04-25T20:20:54;5.90;99.90
23755;DHT22;12057;52.042;6.830;2023-04-25T20:25:55;5.80;99.90
23755;DHT22;12057;52.042;6.830;2023-04-25T20:30:55;5.70;99.90
23755;DHT22;12057;52.042;6.830;2023-04-25T20:35:56;5.70;99.90
23755;DHT22;12057;52.042;6.830;2023-04-25T20:40:57;5.60;99.90
23755;DHT22;12057;52.042;6.830;2023-04-25T20:45:59;5.50;99.90
23755;DHT22;12057;52.042;6.830;2023-04-25T20:51:00;5.40;99.90
23755;DHT22;12057;52.042;6.830;2023-04-25T20:56:01;5.40;99.90
23755;DHT22;12057;52.042;6.830;2023-04-25T21:01:02;5.40;99.90
23755;DHT22;12057;52.042;6.830;2023-04-25T21:06:03;5.50;99.90
23755;DHT22;12057;52.042;6.830;2023-04-25T21:11:04;5.50;99.90
23755;DHT22;12057;52.042;6.830;2023-04-25T21:16:05;5.50;99.90
23755;DHT22;12057;52.042;6.830;2023-04-25T21:21:06;5.40;99.90
23755;DHT22;12057;52.042;6.830;2023-04-25T21:26:07;5.40;99.90
23755;DHT22;12057;52.042;6.830;2023-04-25T21:31:08;5.40;99.90
23755;DHT22;12057;52.042;6.830;2023-04-25T21:36:08;5.30;99.90
23755;DHT22;12057;52.042;6.830;2023-04-25T21:41:09;5.30;99.90
23755;DHT22;12057;52.042;6.830;2023-04-25T21:46:10;5.10;99.90
23755;DHT22;12057;52.042;6.830;2023-04-25T21:51:11;5.10;99.90
23755;DHT22;12057;52.042;6.830;2023-04-25T21:56:12;5.00;99.90
23755;DHT22;12057;52.042;6.830;2023-04-25T22:01:12;4.90;99.90
23755;DHT22;12057;52.042;6.830;2023-04-25T22:06:15;5.00;99.90
23755;DHT22;12057;52.042;6.830;2023-04-25T22:11:15;4.90;99.90
23755;DHT22;12057;52.042;6.830;2023-04-25T22:16:16;4.80;99.90
23755;DHT22;12057;52.042;6.830;2023-04-25T22:21:17;4.70;99.90
23755;DHT22;12057;52.042;6.830;2023-04-25T22:26:18;4.60;99.90
23755;DHT22;12057;52.042;6.830;2023-04-25T22:31:19;4.60;99.90
23755;DHT22;12057;52.042;6.830;2023-04-25T22:36:21;4.60;99.90
23755;DHT22;12057;52.042;6.830;2023-04-25T22:41:23;4.50;99.90
23755;DHT22;12057;52.042;6.830;2023-04-25T22:46:24;4.50;99.90
23755;DHT22;12057;52.042;6.830;2023-04-25T22:51:28;4.50;99.90
23755;DHT22;12057;52.042;6.830;2023-04-25T22:56:30;4.40;99.90
23755;DHT22;12057;52.042;6.830;2023-04-25T23:01:32;4.30;99.90
23755;DHT22;12057;52.042;6.830;2023-04-25T23:06:32;4.20;99.90
23755;DHT22;12057;52.042;6.830;2023-04-25T23:11:33;4.30;99.90
23755;DHT22;12057;52.042;6.830;2023-04-25T23:16:34;4.20;99.90
23755;DHT22;12057;52.042;6.830;2023-04-25T23:21:35;4.20;99.90
23755;DHT22;12057;52.042;6.830;2023-04-25T23:26:36;4.10;99.90
23755;DHT22;12057;52.042;6.830;2023-04-25T23:31:36;4.10;99.90
23755;DHT22;12057;52.042;6.830;2023-04-25T23:36:37;4.00;99.90
23755;DHT22;12057;52.042;6.830;2023-04-25T23:41:38;3.90;99.90
23755;DHT22;12057;52.042;6.830;2023-04-25T23:46:39;3.90;99.90
23755;DHT22;12057;52.042;6.830;2023-04-25T23:51:40;3.80;99.90
23755;DHT22;12057;52.042;6.830;2023-04-25T23:56:41;3.70;99.90
